createdAt,value
2022-08-01T00:00:15.594Z,20.80
2022-08-01T00:02:42.594Z,20.78
2022-08-01T00:05:11.839Z,20.78
2022-08-01T00:07:39.603Z,20.73
2022-08-01T00:10:14.503Z,20.69
2022-08-01T00:12:42.946Z,20.71
2022-08-01T00:15:12.942Z,20.65
2022-08-01T00:17:40.588Z,20.53
2022-08-01T00:20:11.415Z,20.49
2022-08-01T00:22:39.351Z,20.53
2022-08-01T00:25:07.803Z,20.51
2022-08-01T00:27:37.681Z,20.41
2022-08-01T00:30:13.451Z,20.36
2022-08-01T00:32:45.551Z,20.29
2022-08-01T00:35:12.770Z,20.31
2022-08-01T00:37:39.714Z,20.26
2022-08-01T00:40:08.585Z,20.22
2022-08-01T00:42:39.102Z,20.15
2022-08-01T00:45:09.396Z,20.10
2022-08-01T00:47:36.171Z,20.12
2022-08-01T00:50:06.197Z,20.11
2022-08-01T00:52:34.904Z,20.09
2022-08-01T00:55:02.234Z,20.06
2022-08-01T00:58:03.055Z,20.12
2022-08-01T01:00:18.149Z,20.08
2022-08-01T01:02:45.356Z,20.00
2022-08-01T01:05:12.256Z,19.96
2022-08-01T01:07:59.960Z,19.96
2022-08-01T01:10:53.193Z,19.91
2022-08-01T01:13:50.085Z,19.84
2022-08-01T01:16:22.760Z,19.78
2022-08-01T01:18:55.886Z,19.72
2022-08-01T01:21:24.819Z,19.67
2022-08-01T01:24:09.212Z,19.61
2022-08-01T01:27:13.508Z,19.57
2022-08-01T01:30:00.068Z,19.54
2022-08-01T01:32:45.943Z,19.56
2022-08-01T01:35:28.046Z,19.45
2022-08-01T01:38:25.363Z,19.41
2022-08-01T01:40:54.755Z,19.47
2022-08-01T01:43:28.854Z,19.47
2022-08-01T01:46:01.852Z,19.33
2022-08-01T01:48:30.486Z,19.28
2022-08-01T01:50:58.760Z,19.29
2022-08-01T01:53:29.078Z,19.36
2022-08-01T01:55:59.760Z,19.52
2022-08-01T01:58:29.176Z,19.52
2022-08-01T02:01:02.738Z,19.33
2022-08-01T02:03:32.593Z,19.19
2022-08-01T02:06:02.671Z,19.20
2022-08-01T02:08:33.938Z,19.17
2022-08-01T02:11:19.782Z,19.10
2022-08-01T02:13:59.483Z,19.02
2022-08-01T02:16:30.677Z,19.00
2022-08-01T02:18:58.145Z,18.94
2022-08-01T02:21:50.361Z,18.84
2022-08-01T02:24:41.857Z,18.91
2022-08-01T02:27:18.651Z,18.96
2022-08-01T02:29:58.370Z,18.96
2022-08-01T02:32:33.044Z,19.04
2022-08-01T02:35:04.071Z,19.10
2022-08-01T02:37:38.524Z,19.17
2022-08-01T02:40:15.799Z,19.09
2022-08-01T02:42:48.567Z,19.10
2022-08-01T02:45:21.505Z,19.24
2022-08-01T02:47:53.092Z,19.15
2022-08-01T02:50:21.803Z,19.19
2022-08-01T02:52:53.426Z,19.23
2022-08-01T02:55:21.574Z,19.06
2022-08-01T02:58:00.130Z,19.13
2022-08-01T03:00:32.092Z,18.99
2022-08-01T03:03:01.805Z,18.77
2022-08-01T03:05:31.391Z,18.76
2022-08-01T03:08:02.762Z,18.90
2022-08-01T03:10:34.062Z,18.91
2022-08-01T03:13:04.577Z,18.94
2022-08-01T03:15:36.757Z,18.88
2022-08-01T03:18:07.649Z,18.94
2022-08-01T03:20:35.849Z,19.01
2022-08-01T03:23:08.247Z,19.07
2022-08-01T03:25:39.677Z,19.07
2022-08-01T03:28:09.812Z,19.07
2022-08-01T03:30:39.912Z,19.04
2022-08-01T03:33:07.594Z,19.10
2022-08-01T03:35:40.294Z,19.10
2022-08-01T03:38:16.189Z,19.06
2022-08-01T03:41:03.253Z,18.99
2022-08-01T03:43:58.610Z,19.00
2022-08-01T03:46:43.264Z,18.91
2022-08-01T03:49:19.543Z,18.72
2022-08-01T03:51:50.561Z,18.79
2022-08-01T03:54:23.616Z,18.87
2022-08-01T03:56:52.853Z,18.89
2022-08-01T03:59:21.616Z,18.88
2022-08-01T04:01:49.345Z,18.84
2022-08-01T04:04:16.620Z,18.86
2022-08-01T04:06:46.673Z,18.92
2022-08-01T04:09:14.112Z,18.84
2022-08-01T04:11:42.054Z,18.92
2022-08-01T04:14:09.532Z,18.95
2022-08-01T04:16:36.450Z,18.90
2022-08-01T04:19:03.878Z,18.91
2022-08-01T04:21:33.459Z,18.86
2022-08-01T04:24:08.180Z,18.82
2022-08-01T04:26:38.608Z,18.78
2022-08-01T04:29:07.857Z,18.93
2022-08-01T04:31:39.221Z,19.05
2022-08-01T04:34:07.812Z,18.99
2022-08-01T04:36:37.931Z,19.00
2022-08-01T04:39:07.266Z,19.05
2022-08-01T04:41:35.126Z,19.07
2022-08-01T04:44:03.660Z,18.96
2022-08-01T04:46:33.207Z,18.90
2022-08-01T04:49:01.481Z,18.90
2022-08-01T04:51:28.292Z,18.92
2022-08-01T04:53:55.112Z,18.95
2022-08-01T04:56:22.215Z,18.95
2022-08-01T04:59:09.552Z,18.92
2022-08-01T05:01:51.406Z,18.88
2022-08-01T05:04:18.265Z,18.91
2022-08-01T05:06:44.979Z,18.95
2022-08-01T05:09:12.335Z,18.97
2022-08-01T05:11:39.055Z,18.92
2022-08-01T05:14:05.981Z,18.98
2022-08-01T05:16:32.665Z,19.05
2022-08-01T05:18:59.408Z,19.05
2022-08-01T05:21:26.243Z,19.01
2022-08-01T05:23:53.004Z,19.02
2022-08-01T05:26:20.853Z,19.02
2022-08-01T05:28:47.993Z,19.02
2022-08-01T05:31:14.832Z,19.11
2022-08-01T05:33:41.553Z,19.17
2022-08-01T05:36:08.422Z,19.23
2022-08-01T05:38:35.245Z,19.37
2022-08-01T05:41:02.224Z,19.43
2022-08-01T05:43:29.385Z,19.45
2022-08-01T05:45:56.705Z,19.49
2022-08-01T05:48:23.698Z,19.49
2022-08-01T05:50:52.233Z,19.55
2022-08-01T05:53:21.587Z,19.62
2022-08-01T05:55:48.867Z,19.64
2022-08-01T05:58:15.580Z,19.77
2022-08-01T06:00:42.386Z,19.88
2022-08-01T06:03:09.116Z,19.87
2022-08-01T06:05:35.814Z,19.79
2022-08-01T06:08:02.758Z,19.75
2022-08-01T06:10:29.470Z,19.75
2022-08-01T06:12:56.471Z,19.76
2022-08-01T06:15:23.239Z,19.74
2022-08-01T06:17:49.969Z,19.80
2022-08-01T06:20:16.708Z,19.74
2022-08-01T06:22:43.670Z,19.72
2022-08-01T06:25:10.975Z,19.83
2022-08-01T06:27:37.783Z,20.01
2022-08-01T06:30:08.514Z,20.10
2022-08-01T06:32:35.279Z,20.14
2022-08-01T06:35:02.071Z,20.07
2022-08-01T06:37:33.739Z,19.96
2022-08-01T06:40:06.666Z,19.89
2022-08-01T06:42:36.731Z,19.95
2022-08-01T06:45:14.311Z,19.86
2022-08-01T06:47:44.053Z,19.57
2022-08-01T06:50:14.315Z,19.42
2022-08-01T06:52:42.427Z,19.36
2022-08-01T06:55:10.578Z,19.56
2022-08-01T06:57:37.989Z,19.94
2022-08-01T07:00:12.504Z,20.10
2022-08-01T07:02:39.385Z,20.01
2022-08-01T07:05:06.635Z,19.96
2022-08-01T07:07:33.763Z,19.90
2022-08-01T07:10:00.450Z,19.77
2022-08-01T07:12:27.245Z,19.74
2022-08-01T07:14:54.087Z,19.69
2022-08-01T07:17:21.792Z,19.74
2022-08-01T07:19:49.278Z,19.69
2022-08-01T07:22:23.432Z,19.70
2022-08-01T07:24:54.546Z,19.74
2022-08-01T07:27:25.498Z,19.86
2022-08-01T07:29:53.733Z,19.87
2022-08-01T07:32:21.329Z,19.88
2022-08-01T07:34:48.306Z,19.96
2022-08-01T07:37:15.110Z,19.82
2022-08-01T07:39:41.985Z,19.77
2022-08-01T07:42:12.522Z,19.71
2022-08-01T07:44:40.016Z,19.70
2022-08-01T07:47:07.357Z,19.68
2022-08-01T07:49:39.959Z,19.75
2022-08-01T07:52:08.066Z,19.87
2022-08-01T07:54:35.326Z,20.03
2022-08-01T07:57:04.258Z,20.19
2022-08-01T07:59:31.362Z,20.19
2022-08-01T08:01:58.913Z,20.26
2022-08-01T08:04:27.661Z,20.30
2022-08-01T08:06:54.969Z,20.26
2022-08-01T08:09:22.234Z,20.08
2022-08-01T08:11:49.439Z,19.92
2022-08-01T08:14:18.274Z,19.95
2022-08-01T08:16:46.042Z,20.05
2022-08-01T08:19:13.076Z,20.12
2022-08-01T08:21:40.963Z,20.07
2022-08-01T08:24:26.374Z,20.08
2022-08-01T08:27:00.641Z,19.85
2022-08-01T08:29:30.687Z,19.64
2022-08-01T08:31:58.689Z,19.48
2022-08-01T08:34:28.365Z,19.48
2022-08-01T08:36:57.344Z,19.59
2022-08-01T08:39:26.389Z,19.77
2022-08-01T08:41:53.582Z,20.07
2022-08-01T08:44:21.213Z,20.15
2022-08-01T08:46:53.382Z,20.29
2022-08-01T08:49:27.769Z,20.61
2022-08-01T08:52:05.796Z,21.24
2022-08-01T08:54:38.672Z,21.22
2022-08-01T08:57:06.439Z,21.11
2022-08-01T08:59:33.482Z,20.91
2022-08-01T09:02:00.708Z,20.68
2022-08-01T09:04:27.988Z,20.68
2022-08-01T09:06:55.860Z,20.59
2022-08-01T09:09:24.379Z,20.67
2022-08-01T09:12:06.637Z,20.76
2022-08-01T09:14:36.099Z,20.90
2022-08-01T09:17:12.121Z,20.88
2022-08-01T09:19:46.085Z,20.73
2022-08-01T09:22:22.286Z,20.61
2022-08-01T09:25:11.825Z,20.45
2022-08-01T09:27:44.222Z,20.40
2022-08-01T09:30:23.356Z,20.37
2022-08-01T09:33:01.746Z,20.35
2022-08-01T09:35:43.459Z,20.36
2022-08-01T09:38:30.198Z,20.39
2022-08-01T09:41:01.509Z,20.45
2022-08-01T09:43:32.213Z,20.57
2022-08-01T09:46:05.431Z,20.62
2022-08-01T09:48:33.681Z,20.64
2022-08-01T09:51:07.103Z,20.81
2022-08-01T09:53:52.017Z,21.05
2022-08-01T09:56:22.714Z,21.15
2022-08-01T09:59:01.579Z,21.18
2022-08-01T10:01:44.442Z,21.24
2022-08-01T10:04:23.814Z,21.29
2022-08-01T10:07:03.012Z,21.19
2022-08-01T10:09:35.813Z,21.09
2022-08-01T10:12:15.515Z,20.99
2022-08-01T10:14:50.670Z,20.87
2022-08-01T10:17:20.952Z,20.75
2022-08-01T10:19:55.610Z,20.64
2022-08-01T10:22:27.891Z,20.56
2022-08-01T10:24:58.271Z,20.52
2022-08-01T10:27:38.014Z,20.49
2022-08-01T10:30:19.249Z,20.50
2022-08-01T10:32:50.914Z,20.55
2022-08-01T10:35:45.839Z,20.66
2022-08-01T10:38:10.702Z,20.82
2022-08-01T10:40:43.001Z,20.90
2022-08-01T10:43:21.729Z,21.02
2022-08-01T10:45:51.583Z,21.15
2022-08-01T10:48:44.039Z,21.15
2022-08-01T10:51:18.438Z,21.13
2022-08-01T10:54:09.802Z,21.06
2022-08-01T10:56:48.735Z,21.09
2022-08-01T10:59:49.390Z,21.02
2022-08-01T11:02:32.114Z,20.97
2022-08-01T11:05:08.116Z,20.96
2022-08-01T11:07:53.857Z,20.99
2022-08-01T11:10:30.767Z,21.05
2022-08-01T11:12:57.793Z,21.16
2022-08-01T11:15:29.274Z,21.27
2022-08-01T11:18:01.138Z,21.40
2022-08-01T11:20:39.457Z,21.48
2022-08-01T11:23:10.735Z,21.63
2022-08-01T11:26:06.635Z,21.76
2022-08-01T11:28:33.838Z,21.86
2022-08-01T11:31:11.725Z,21.75
2022-08-01T11:33:40.999Z,21.57
2022-08-01T11:36:14.501Z,21.38
2022-08-01T11:39:14.124Z,21.28
2022-08-01T11:41:45.030Z,21.11
2022-08-01T11:44:26.817Z,20.94
2022-08-01T11:47:09.667Z,20.92
2022-08-01T11:49:49.126Z,20.92
2022-08-01T11:52:30.378Z,20.97
2022-08-01T11:55:02.981Z,21.11
2022-08-01T11:57:35.664Z,21.16
2022-08-01T12:00:18.600Z,21.26
2022-08-01T12:03:09.942Z,21.26
2022-08-01T12:05:43.344Z,21.22
2022-08-01T12:08:10.715Z,21.19
2022-08-01T12:10:49.628Z,21.11
2022-08-01T12:13:18.917Z,21.01
2022-08-01T12:15:47.126Z,21.25
2022-08-01T12:18:14.827Z,21.43
2022-08-01T12:20:55.994Z,21.62
2022-08-01T12:23:23.322Z,21.99
2022-08-01T12:25:54.143Z,21.96
2022-08-01T12:28:20.871Z,21.98
2022-08-01T12:30:50.541Z,21.98
2022-08-01T12:33:22.048Z,22.11
2022-08-01T12:35:49.279Z,22.12
2022-08-01T12:38:20.218Z,22.24
2022-08-01T12:40:53.375Z,22.17
2022-08-01T12:43:28.661Z,22.19
2022-08-01T12:46:00.994Z,22.31
2022-08-01T12:48:31.147Z,22.28
2022-08-01T12:51:02.032Z,22.46
2022-08-01T12:53:40.220Z,22.55
2022-08-01T12:56:09.188Z,22.72
2022-08-01T12:58:36.666Z,22.73
2022-08-01T13:01:06.777Z,22.74
2022-08-01T13:03:35.471Z,22.84
2022-08-01T13:06:17.609Z,23.08
2022-08-01T13:08:46.683Z,23.09
2022-08-01T13:11:16.608Z,23.10
2022-08-01T13:13:49.375Z,23.17
2022-08-01T13:16:49.173Z,23.36
2022-08-01T13:19:15.147Z,23.19
2022-08-01T13:21:58.430Z,23.18
2022-08-01T13:24:30.313Z,23.10
2022-08-01T13:27:01.433Z,23.00
2022-08-01T13:29:44.165Z,23.06
2022-08-01T13:32:28.710Z,22.84
2022-08-01T13:35:10.308Z,22.82
2022-08-01T13:37:38.789Z,22.79
2022-08-01T13:40:08.509Z,22.68
2022-08-01T13:42:36.019Z,22.63
2022-08-01T13:45:13.885Z,22.81
2022-08-01T13:48:04.085Z,23.08
2022-08-01T13:50:32.633Z,23.34
2022-08-01T13:52:59.430Z,23.89
2022-08-01T13:55:29.891Z,24.08
2022-08-01T13:58:00.878Z,24.09
2022-08-01T14:00:27.649Z,23.94
2022-08-01T14:02:54.428Z,23.61
2022-08-01T14:05:21.162Z,23.58
2022-08-01T14:07:48.590Z,23.55
2022-08-01T14:10:19.948Z,23.58
2022-08-01T14:12:49.352Z,23.66
2022-08-01T14:15:38.419Z,23.57
2022-08-01T14:18:06.107Z,23.47
2022-08-01T14:20:34.780Z,23.38
2022-08-01T14:23:02.065Z,23.41
2022-08-01T14:26:03.014Z,23.42
2022-08-01T14:28:16.114Z,23.23
2022-08-01T14:30:43.705Z,23.23
2022-08-01T14:33:13.240Z,23.21
2022-08-01T14:36:05.443Z,23.28
2022-08-01T14:38:31.581Z,23.32
2022-08-01T14:41:00.267Z,23.38
2022-08-01T14:43:32.944Z,23.36
2022-08-01T14:46:05.067Z,23.43
2022-08-01T14:48:32.894Z,23.44
2022-08-01T14:51:03.698Z,23.52
2022-08-01T14:53:34.271Z,23.54
2022-08-01T14:56:04.547Z,23.54
2022-08-01T14:58:31.334Z,23.49
2022-08-01T15:00:59.381Z,23.66
2022-08-01T15:03:27.322Z,23.69
2022-08-01T15:05:54.101Z,23.58
2022-08-01T15:08:20.846Z,23.51
2022-08-01T15:10:47.568Z,23.51
2022-08-01T15:13:14.831Z,23.80
2022-08-01T15:15:41.577Z,24.17
2022-08-01T15:18:08.621Z,23.84
2022-08-01T15:20:35.554Z,24.03
2022-08-01T15:23:02.500Z,24.32
2022-08-01T15:25:40.858Z,24.57
2022-08-01T15:28:13.240Z,24.66
2022-08-01T15:30:40.410Z,24.67
2022-08-01T15:33:07.744Z,24.32
2022-08-01T15:35:35.013Z,23.81
2022-08-01T15:38:02.004Z,23.47
2022-08-01T15:40:29.522Z,23.29
2022-08-01T15:42:56.511Z,23.19
2022-08-01T15:45:46.472Z,23.14
2022-08-01T15:48:10.349Z,22.97
2022-08-01T15:50:39.139Z,22.86
2022-08-01T15:53:07.369Z,22.92
2022-08-01T15:55:38.664Z,23.00
2022-08-01T15:58:06.083Z,22.91
2022-08-01T16:00:39.396Z,22.86
2022-08-01T16:03:10.464Z,23.02
2022-08-01T16:05:43.169Z,23.06
2022-08-01T16:08:14.476Z,23.08
2022-08-01T16:10:42.713Z,22.99
2022-08-01T16:13:10.201Z,23.02
2022-08-01T16:15:39.252Z,23.05
2022-08-01T16:18:10.056Z,23.15
2022-08-01T16:20:41.489Z,23.19
2022-08-01T16:23:11.346Z,23.23
2022-08-01T16:25:38.345Z,23.26
2022-08-01T16:28:05.413Z,23.27
2022-08-01T16:30:32.532Z,23.24
2022-08-01T16:33:00.305Z,23.19
2022-08-01T16:35:36.648Z,23.17
2022-08-01T16:38:07.591Z,23.26
2022-08-01T16:40:46.352Z,23.32
2022-08-01T16:43:15.085Z,23.27
2022-08-01T16:45:43.231Z,23.30
2022-08-01T16:48:12.512Z,23.35
2022-08-01T16:50:39.860Z,23.31
2022-08-01T16:53:06.961Z,23.40
2022-08-01T16:55:49.560Z,23.40
2022-08-01T16:58:27.339Z,23.38
2022-08-01T17:00:57.069Z,23.33
2022-08-01T17:03:51.388Z,23.28
2022-08-01T17:06:13.826Z,23.26
2022-08-01T17:08:46.149Z,23.31
2022-08-01T17:11:15.035Z,23.29
2022-08-01T17:13:42.740Z,23.24
2022-08-01T17:16:10.225Z,23.22
2022-08-01T17:18:37.338Z,23.10
2022-08-01T17:21:04.501Z,23.10
2022-08-01T17:23:35.133Z,22.96
2022-08-01T17:26:02.184Z,22.85
2022-08-01T17:28:28.921Z,22.81
2022-08-01T17:30:55.754Z,22.75
2022-08-01T17:33:22.502Z,22.66
2022-08-01T17:35:49.436Z,22.59
2022-08-01T17:38:16.385Z,22.57
2022-08-01T17:40:43.890Z,22.52
2022-08-01T17:43:10.660Z,22.51
2022-08-01T17:45:50.931Z,22.47
2022-08-01T17:48:21.583Z,22.46
2022-08-01T17:50:49.439Z,22.38
2022-08-01T17:53:21.057Z,22.37
2022-08-01T17:55:55.249Z,22.38
2022-08-01T17:58:50.059Z,22.34
2022-08-01T18:01:14.218Z,22.26
2022-08-01T18:03:41.959Z,22.21
2022-08-01T18:06:13.454Z,22.19
2022-08-01T18:08:42.044Z,22.21
2022-08-01T18:11:09.773Z,22.18
2022-08-01T18:13:40.505Z,22.12
2022-08-01T18:16:11.380Z,22.06
2022-08-01T18:18:39.836Z,21.99
2022-08-01T18:21:08.002Z,21.97
2022-08-01T18:23:35.172Z,21.93
2022-08-01T18:26:06.838Z,21.89
2022-08-01T18:28:41.634Z,21.85
2022-08-01T18:31:11.784Z,21.80
2022-08-01T18:33:39.008Z,21.79
2022-08-01T18:36:09.795Z,21.76
2022-08-01T18:38:47.891Z,21.73
2022-08-01T18:41:14.620Z,21.59
2022-08-01T18:43:41.467Z,21.57
2022-08-01T18:46:08.432Z,21.55
2022-08-01T18:48:35.108Z,21.49
2022-08-01T18:51:01.838Z,21.39
2022-08-01T18:53:28.721Z,21.29
2022-08-01T18:55:55.538Z,21.27
2022-08-01T18:58:22.276Z,21.21
2022-08-01T19:00:49.204Z,21.17
2022-08-01T19:03:16.808Z,21.16
2022-08-01T19:05:44.044Z,21.11
2022-08-01T19:08:11.681Z,21.01
2022-08-01T19:10:43.484Z,20.91
2022-08-01T19:13:10.280Z,20.80
2022-08-01T19:15:37.016Z,20.70
2022-08-01T19:18:04.677Z,20.76
2022-08-01T19:20:31.702Z,20.77
2022-08-01T19:22:58.983Z,20.70
2022-08-01T19:25:26.657Z,20.64
2022-08-01T19:27:58.438Z,20.57
2022-08-01T19:30:25.579Z,20.58
2022-08-01T19:32:56.095Z,20.47
2022-08-01T19:35:25.328Z,20.34
2022-08-01T19:37:54.286Z,20.29
2022-08-01T19:40:26.113Z,20.22
2022-08-01T19:42:55.918Z,20.09
2022-08-01T19:45:23.081Z,20.11
2022-08-01T19:47:56.522Z,20.05
2022-08-01T19:50:27.822Z,19.92
2022-08-01T19:52:57.720Z,19.87
2022-08-01T19:55:27.112Z,19.75
2022-08-01T19:58:24.568Z,19.65
2022-08-01T20:00:44.621Z,19.63
2022-08-01T20:03:17.857Z,19.57
2022-08-01T20:05:45.149Z,19.59
2022-08-01T20:08:13.127Z,19.51
2022-08-01T20:10:41.194Z,19.51
2022-08-01T20:13:11.033Z,19.45
2022-08-01T20:15:39.280Z,19.51
2022-08-01T20:18:07.404Z,19.56
2022-08-01T20:20:37.380Z,19.60
2022-08-01T20:23:10.669Z,19.48
2022-08-01T20:25:49.687Z,19.19
2022-08-01T20:28:22.749Z,19.22
2022-08-01T20:31:01.105Z,19.07
2022-08-01T20:33:31.349Z,18.94
2022-08-01T20:36:00.749Z,19.09
2022-08-01T20:38:28.938Z,18.91
2022-08-01T20:41:02.312Z,19.01
2022-08-01T20:43:30.299Z,19.11
2022-08-01T20:45:58.342Z,19.10
2022-08-01T20:48:31.295Z,19.12
2022-08-01T20:51:16.048Z,19.13
2022-08-01T20:53:49.360Z,19.07
2022-08-01T20:56:19.057Z,19.11
2022-08-01T20:59:54.551Z,19.04
2022-08-01T21:02:49.054Z,18.93
2022-08-01T21:05:32.188Z,18.87
2022-08-01T21:08:29.985Z,18.91
2022-08-01T21:10:58.590Z,18.76
2022-08-01T21:13:49.127Z,18.72
2022-08-01T21:16:26.428Z,18.73
2022-08-01T21:19:18.997Z,18.82
2022-08-01T21:22:14.037Z,18.88
2022-08-01T21:24:57.679Z,18.92
2022-08-01T21:27:33.455Z,18.91
2022-08-01T21:30:05.387Z,18.90
2022-08-01T21:32:35.306Z,18.91
2022-08-01T21:35:05.163Z,18.92
2022-08-01T21:37:31.979Z,18.84
2022-08-01T21:40:02.684Z,18.81
2022-08-01T21:42:39.672Z,18.74
2022-08-01T21:45:09.607Z,18.71
2022-08-01T21:47:38.066Z,18.68
2022-08-01T21:50:05.647Z,18.66
2022-08-01T21:52:44.724Z,18.68
2022-08-01T21:55:35.418Z,18.65
2022-08-01T21:58:42.935Z,18.61
2022-08-01T22:01:53.129Z,18.49
2022-08-01T22:04:48.362Z,18.46
2022-08-01T22:07:18.665Z,18.39
2022-08-01T22:09:49.887Z,18.37
2022-08-01T22:12:20.292Z,18.43
2022-08-01T22:14:56.012Z,18.44
2022-08-01T22:17:25.017Z,18.50
2022-08-01T22:19:55.121Z,18.39
2022-08-01T22:22:51.521Z,18.39
2022-08-01T22:25:16.595Z,18.46
2022-08-01T22:28:08.169Z,18.45
2022-08-01T22:30:34.616Z,18.47
2022-08-01T22:33:07.840Z,18.43
2022-08-01T22:35:45.607Z,18.17
2022-08-01T22:38:12.619Z,17.91
2022-08-01T22:40:50.661Z,17.84
2022-08-01T22:43:58.804Z,17.90
2022-08-01T22:46:44.947Z,17.89
2022-08-01T22:49:17.893Z,17.90
2022-08-01T22:51:53.578Z,17.87
2022-08-01T22:54:30.220Z,17.99
2022-08-01T22:57:02.254Z,18.00
2022-08-01T22:59:59.197Z,17.76
2022-08-01T23:02:29.352Z,17.83
2022-08-01T23:05:07.429Z,17.81
2022-08-01T23:07:39.854Z,17.83
2022-08-01T23:10:08.817Z,17.90
2022-08-01T23:12:38.002Z,17.99
2022-08-01T23:15:06.837Z,18.04
2022-08-01T23:17:34.384Z,18.01
2022-08-01T23:20:06.452Z,18.00
2022-08-01T23:22:36.648Z,17.98
2022-08-01T23:25:09.542Z,17.95
2022-08-01T23:27:51.539Z,17.87
2022-08-01T23:30:33.913Z,17.63
2022-08-01T23:33:01.314Z,17.45
2022-08-01T23:35:30.228Z,17.58
2022-08-01T23:38:02.759Z,17.51
2022-08-01T23:40:33.375Z,17.43
2022-08-01T23:43:02.403Z,17.42
2022-08-01T23:45:58.577Z,17.49
2022-08-01T23:48:16.076Z,17.70
2022-08-01T23:50:43.428Z,17.77
2022-08-01T23:53:10.462Z,17.53
2022-08-01T23:55:40.551Z,17.48
2022-08-01T23:58:10.434Z,17.40
